Time;durP1;ratioP1;P1;durP2;ratioP2;P2;SDS_P1;SDS_P2;PMS_P1;PMS_P2;Temp;Humidity;BMP_temperature;BMP_pressure;BME280_temperature;BME280_humidity;BME280_pressure;Samples;Min_cycle;Max_cycle;Signal;HPM_P1;HPM_P2
2022/11/17 00:00:00;;;;;;;17.70;10.60;;;7.70;99.90;;;;;;6243269;22;20077;-96
2022/11/17 00:06:32;;;;;;;15.67;10.97;;;7.70;99.90;;;;;;6290817;22;20433;-96
2022/11/17 00:09:33;;;;;;;12.85;9.68;;;8.10;99.90;;;;;;6239226;22;20015;-96
2022/11/17 00:14:55;;;;;;;14.50;9.90;;;7.70;99.90;;;;;;6261350;22;20580;-96
2022/11/17 00:21:17;;;;;;;13.38;9.82;;;7.70;99.90;;;;;;6241347;22;20018;-96
2022/11/17 00:24:22;;;;;;;16.35;10.70;;;7.60;99.90;;;;;;6296882;22;20054;-96
2022/11/17 00:34:16;;;;;;;18.33;10.77;;;7.60;99.90;;;;;;6296841;22;20061;-96
2022/11/17 00:37:29;;;;;;;13.80;9.95;;;7.20;99.90;;;;;;6219241;22;20465;-96
2022/11/17 00:44:00;;;;;;;15.35;10.57;;;7.70;99.90;;;;;;6267218;23;20046;-96
2022/11/17 00:57:15;;;;;;;13.25;9.20;;;7.50;99.90;;;;;;6169260;23;20049;-96
2022/11/17 01:04:10;;;;;;;13.60;10.45;;;7.40;99.90;;;;;;6204236;23;20040;-96
2022/11/17 01:07:11;;;;;;;15.45;11.48;;;6.60;99.90;;;;;;6183946;23;20021;-96
2022/11/17 01:09:52;;;;;;;13.00;9.93;;;7.40;99.90;;;;;;6176489;23;20053;-96
2022/11/17 01:12:56;;;;;;;14.45;10.32;;;7.40;99.90;;;;;;6151328;23;20035;-96
2022/11/17 01:15:51;;;;;;;15.25;10.30;;;7.40;99.90;;;;;;6159355;23;20032;-96
2022/11/17 01:29:22;;;;;;;13.70;10.60;;;7.30;99.90;;;;;;6200241;23;20036;-96
2022/11/17 01:32:44;;;;;;;12.20;9.40;;;6.70;99.90;;;;;;6204808;23;20021;-96
2022/11/17 01:35:38;;;;;;;13.80;10.02;;;7.20;99.90;;;;;;6203255;23;20027;-96
2022/11/17 01:38:23;;;;;;;14.73;9.50;;;7.70;99.90;;;;;;6193996;23;20023;-96
2022/11/17 01:41:32;;;;;;;13.10;9.70;;;8.20;99.90;;;;;;6236555;23;20051;-96
2022/11/17 03:09:37;;;;;;;15.55;10.02;;;6.90;99.90;;;;;;6302965;22;20541;-96
2022/11/17 03:16:20;;;;;;;13.40;9.18;;;6.80;99.90;;;;;;6288018;22;20024;-96
2022/11/17 03:19:21;;;;;;;12.98;9.70;;;6.80;99.90;;;;;;6262812;22;20030;-96
2022/11/17 03:25:57;;;;;;;17.52;10.43;;;6.90;99.90;;;;;;6286518;22;20026;-96
2022/11/17 03:28:33;;;;;;;12.60;9.20;;;7.40;99.90;;;;;;6265980;22;20414;-96
2022/11/17 03:31:14;;;;;;;14.30;9.65;;;6.90;99.90;;;;;;6291577;22;20026;-96
2022/11/17 03:41:19;;;;;;;15.50;10.77;;;6.80;99.90;;;;;;6296840;22;20073;-96
2022/11/17 03:44:29;;;;;;;13.80;11.00;;;6.00;99.90;;;;;;6295062;22;20023;-96
2022/11/17 03:58:33;;;;;;;14.73;10.20;;;6.80;99.90;;;;;;6290124;22;20019;-96
2022/11/17 04:18:25;;;;;;;16.37;10.93;;;6.30;99.90;;;;;;6291537;22;20011;-96
2022/11/17 04:24:21;;;;;;;18.75;11.50;;;7.00;99.90;;;;;;6282322;22;20098;-96
2022/11/17 04:30:22;;;;;;;17.58;12.30;;;6.10;99.90;;;;;;6261404;22;20020;-95
2022/11/17 04:36:22;;;;;;;16.30;10.45;;;6.00;99.90;;;;;;6281057;22;20099;-96
2022/11/17 04:42:41;;;;;;;15.10;10.20;;;6.00;99.90;;;;;;6279647;22;20024;-96
2022/11/17 04:45:09;;;;;;;15.95;10.48;;;7.50;99.90;;;;;;6227527;22;20016;-96
2022/11/17 04:47:40;;;;;;;16.02;11.48;;;6.00;99.90;;;;;;6225999;22;20019;-95
2022/11/17 04:50:12;;;;;;;14.85;10.55;;;6.20;99.90;;;;;;6253429;22;20047;-96
2022/11/17 04:52:47;;;;;;;17.23;11.80;;;6.40;99.90;;;;;;6205284;22;20090;-96
2022/11/17 04:55:37;;;;;;;16.20;10.68;;;6.20;99.90;;;;;;6253300;22;20020;-96
2022/11/17 04:58:08;;;;;;;14.25;11.10;;;6.20;99.90;;;;;;6276496;22;20019;-96
2022/11/17 05:01:12;;;;;;;16.95;10.73;;;5.60;99.90;;;;;;6231189;22;20024;-96
2022/11/17 05:03:59;;;;;;;15.65;11.02;;;6.20;99.90;;;;;;6260173;22;20027;-96
2022/11/17 05:06:47;;;;;;;14.45;11.52;;;6.10;99.90;;;;;;6259583;22;20016;-96
2022/11/17 05:09:21;;;;;;;13.63;10.30;;;6.20;99.90;;;;;;6233668;22;20050;-96
2022/11/17 05:14:43;;;;;;;14.52;10.25;;;6.20;99.90;;;;;;6243967;22;20080;-96
2022/11/17 05:17:13;;;;;;;16.33;12.25;;;6.10;99.90;;;;;;6214737;22;20094;-96
2022/11/17 05:20:10;;;;;;;15.77;11.60;;;5.90;99.90;;;;;;6261954;22;20046;-96
2022/11/17 05:26:51;;;;;;;13.32;9.93;;;5.90;99.90;;;;;;6281978;22;20145;-96
2022/11/17 05:40:09;;;;;;;13.77;9.90;;;;;;;;;;6282487;22;20104;-96
2022/11/17 05:43:07;;;;;;;13.10;9.27;;;5.90;99.90;;;;;;6258696;22;20098;-96
2022/11/17 05:45:44;;;;;;;14.25;10.02;;;5.70;99.90;;;;;;6257866;22;20022;-96
2022/11/17 05:48:17;;;;;;;12.45;9.32;;;5.10;99.90;;;;;;6232315;22;20016;-96
2022/11/17 05:50:48;;;;;;;11.15;8.85;;;5.80;99.90;;;;;;6255820;22;20019;-94
2022/11/17 05:53:14;;;;;;;11.15;9.02;;;5.80;99.90;;;;;;6254098;22;20139;-96
2022/11/17 05:55:40;;;;;;;12.48;9.05;;;5.80;99.90;;;;;;6253688;22;20055;-96
2022/11/17 05:58:27;;;;;;;15.07;8.65;;;5.90;99.90;;;;;;6228887;22;20020;-96
2022/11/17 06:00:55;;;;;;;13.00;7.95;;;5.70;99.90;;;;;;6279748;22;20326;-95
2022/11/17 06:06:48;;;;;;;10.35;7.68;;;5.60;99.90;;;;;;6279939;22;20402;-96
2022/11/17 06:09:19;;;;;;;10.88;7.60;;;5.60;99.90;;;;;;6253037;22;20062;-96
2022/11/17 06:12:24;;;;;;;10.55;7.72;;;6.30;99.90;;;;;;6226686;22;20406;-96
2022/11/17 06:14:53;;;;;;;12.07;7.55;;;5.90;99.90;;;;;;6251603;22;20483;-96
2022/11/17 06:17:33;;;;;;;13.13;8.07;;;5.70;99.90;;;;;;6201074;22;20020;-95
2022/11/17 06:20:04;;;;;;;11.50;7.88;;;6.50;99.90;;;;;;6251415;22;20046;-96
2022/11/17 06:22:49;;;;;;;15.32;7.47;;;7.80;99.90;;;;;;6276354;22;20055;-96
2022/11/17 06:25:17;;;;;;;11.45;7.40;;;5.10;99.90;;;;;;6251019;22;20338;-95
2022/11/17 06:28:05;;;;;;;10.82;7.50;;;2.50;99.90;;;;;;6251283;22;20055;-95
2022/11/17 06:30:31;;;;;;;10.18;7.57;;;2.20;99.90;;;;;;6250212;22;20019;-95
2022/11/17 06:33:38;;;;;;;9.98;7.45;;;5.20;99.90;;;;;;6276248;22;20012;-95
2022/11/17 06:36:08;;;;;;;11.60;7.63;;;9.50;99.90;;;;;;6247846;22;20023;-95
2022/11/17 06:38:54;;;;;;;10.57;7.50;;;9.10;99.90;;;;;;6249819;22;20050;-93
2022/11/17 06:45:01;;;;;;;9.45;7.10;;;7.70;99.90;;;;;;6277442;22;20146;-95
2022/11/17 06:47:29;;;;;;;10.98;6.60;;;5.50;99.90;;;;;;6226052;22;20028;-96
2022/11/17 06:50:03;;;;;;;9.85;6.53;;;9.40;99.90;;;;;;6250064;22;20023;-96
2022/11/17 06:53:07;;;;;;;14.52;7.47;;;8.00;99.90;;;;;;6201115;22;20024;-96
2022/11/17 06:56:15;;;;;;;12.13;6.47;;;5.60;99.90;;;;;;6250252;22;20095;-95
2022/11/17 06:58:41;;;;;;;9.35;6.22;;;2.60;99.90;;;;;;6274538;22;20031;-94
2022/11/17 07:01:14;;;;;;;11.27;7.75;;;3.50;99.90;;;;;;6273530;22;20016;-96
2022/11/17 07:04:18;;;;;;;10.18;6.85;;;4.20;99.90;;;;;;6248646;22;20069;-94
2022/11/17 07:06:46;;;;;;;10.95;7.10;;;7.90;99.90;;;;;;6249185;22;20047;-95
2022/11/17 07:09:32;;;;;;;12.20;7.85;;;8.10;99.90;;;;;;6200119;22;20099;-95
2022/11/17 07:12:17;;;;;;;11.52;7.38;;;2.10;99.90;;;;;;6249842;22;20076;-96
2022/11/17 07:15:09;;;;;;;12.30;7.40;;;5.10;99.90;;;;;;6245798;22;20031;-95
2022/11/17 07:17:37;;;;;;;10.07;7.55;;;8.00;99.90;;;;;;6242501;22;20020;-95
2022/11/17 07:20:05;;;;;;;8.82;6.10;;;2.70;99.90;;;;;;6222655;22;20161;-96
2022/11/17 07:22:31;;;;;;;9.18;6.20;;;6.60;99.90;;;;;;6196017;22;20030;-94
2022/11/17 07:24:58;;;;;;;11.98;6.93;;;7.60;99.90;;;;;;6222635;22;20011;-96
2022/11/17 07:27:26;;;;;;;10.38;7.32;;;3.30;99.90;;;;;;6223062;22;20019;-96
2022/11/17 07:29:53;;;;;;;8.85;6.57;;;8.00;99.90;;;;;;6248242;22;20089;-96
2022/11/17 07:32:38;;;;;;;9.43;6.25;;;8.90;99.90;;;;;;6275341;22;20019;-95
2022/11/17 07:35:22;;;;;;;9.70;6.70;;;3.40;99.90;;;;;;6223986;22;20094;-95
2022/11/17 07:38:08;;;;;;;9.52;6.78;;;7.50;99.90;;;;;;6274699;22;20019;-96
2022/11/17 07:41:12;;;;;;;10.05;6.35;;;2.30;99.90;;;;;;6223898;22;20049;-95
2022/11/17 07:43:38;;;;;;;8.25;5.82;;;3.70;99.90;;;;;;6249235;22;20012;-94
2022/11/17 07:46:23;;;;;;;8.77;5.72;;;8.40;99.90;;;;;;6249052;22;20055;-94
2022/11/17 07:52:53;;;;;;;9.65;5.22;;;2.80;99.90;;;;;;6276475;22;20099;-95
2022/11/17 07:55:39;;;;;;;8.15;5.00;;;8.00;99.90;;;;;;6249890;22;20078;-95
2022/11/17 08:02:07;;;;;;;6.68;4.88;;;2.40;99.90;;;;;;6275231;22;20018;-94
2022/11/17 08:04:35;;;;;;;7.00;4.63;;;4.40;99.90;;;;;;6248681;22;20020;-94
2022/11/17 08:10:27;;;;;;;6.43;3.70;;;9.20;99.90;;;;;;6273674;22;20020;-94
2022/11/17 08:12:53;;;;;;;6.53;4.22;;;9.00;99.90;;;;;;6248701;22;20071;-94
2022/11/17 08:15:22;;;;;;;7.82;4.88;;;1.80;99.90;;;;;;6225692;22;20024;-95
2022/11/17 08:18:11;;;;;;;6.82;4.28;;;2.90;99.90;;;;;;6250113;22;20334;-96
2022/11/17 08:20:37;;;;;;;6.60;4.20;;;5.90;99.90;;;;;;6225417;22;20019;-96
2022/11/17 08:23:04;;;;;;;8.20;4.80;;;7.40;99.90;;;;;;6274587;22;20031;-96
2022/11/17 08:25:30;;;;;;;8.00;4.55;;;8.80;99.90;;;;;;6225423;22;20048;-96
2022/11/17 08:28:34;;;;;;;5.68;3.88;;;2.20;99.90;;;;;;6250850;22;20077;-95
2022/11/17 08:31:03;;;;;;;6.63;4.40;;;3.70;99.90;;;;;;6251670;22;20110;-95
2022/11/17 08:37:29;;;;;;;7.05;4.38;;;8.20;99.90;;;;;;6276613;22;20018;-96
2022/11/17 08:40:17;;;;;;;6.25;3.85;;;8.00;99.90;;;;;;6250182;22;20049;-95
2022/11/17 08:42:46;;;;;;;9.32;4.32;;;3.00;99.90;;;;;;6249705;22;20022;-96
2022/11/17 08:59:19;;;;;;;9.57;4.95;;;2.10;99.90;;;;;;6274870;22;20069;-94
2022/11/17 09:05:40;;;;;;;7.20;4.85;;;8.60;99.90;;;;;;6275459;22;20098;-94
2022/11/17 09:08:45;;;;;;;8.38;4.95;;;3.00;99.90;;;;;;6251344;22;20034;-94
2022/11/17 09:11:13;;;;;;;9.25;5.35;;;2.60;99.90;;;;;;6250245;22;20023;-95
2022/11/17 09:13:41;;;;;;;8.82;5.55;;;2.60;99.90;;;;;;6250683;22;20102;-95
2022/11/17 09:16:10;;;;;;;8.52;5.50;;;7.20;99.90;;;;;;6224273;22;20012;-94
2022/11/17 09:18:38;;;;;;;7.45;4.68;;;8.30;99.90;;;;;;6248623;22;20023;-93
2022/11/17 09:21:25;;;;;;;8.45;5.82;;;6.70;99.90;;;;;;6248257;22;20043;-94
2022/11/17 09:24:12;;;;;;;8.50;5.45;;;8.00;99.90;;;;;;6250481;22;20098;-92
2022/11/17 09:27:04;;;;;;;8.77;5.35;;;8.70;99.90;;;;;;6249083;22;20098;-95
2022/11/17 09:36:16;;;;;;;10.32;4.90;;;8.90;99.90;;;;;;6275594;22;20024;-93
2022/11/17 09:38:44;;;;;;;9.73;5.18;;;8.80;99.90;;;;;;6250650;22;20016;-95
2022/11/17 09:41:25;;;;;;;8.00;5.22;;;7.80;99.90;;;;;;6250286;22;20020;-94
2022/11/17 09:44:29;;;;;;;7.28;4.72;;;8.10;99.90;;;;;;6250286;22;20020;-93
2022/11/17 09:47:14;;;;;;;7.40;4.82;;;9.10;99.90;;;;;;6249953;22;20049;-95
2022/11/17 09:50:18;;;;;;;7.20;4.55;;;2.90;99.90;;;;;;6249862;22;20022;-93
2022/11/17 09:52:58;;;;;;;8.35;5.43;;;7.20;99.90;;;;;;6249588;22;20098;-94
2022/11/17 09:55:57;;;;;;;7.30;4.97;;;4.00;99.90;;;;;;6249868;22;20103;-92
2022/11/17 09:58:45;;;;;;;8.10;5.20;;;2.40;99.90;;;;;;6274292;22;20016;-96
2022/11/17 10:01:29;;;;;;;10.00;5.57;;;9.00;99.90;;;;;;6249835;22;20498;-94
2022/11/17 10:03:58;;;;;;;8.30;5.57;;;2.40;99.90;;;;;;6249849;22;20046;-94
2022/11/17 10:06:30;;;;;;;7.90;5.55;;;8.30;99.90;;;;;;6249620;22;20340;-94
2022/11/17 10:09:32;;;;;;;7.97;5.38;;;3.30;99.90;;;;;;6248876;22;20414;-94
2022/11/17 10:12:41;;;;;;;8.40;5.57;;;7.00;99.90;;;;;;6250399;22;20019;-94
2022/11/17 10:15:49;;;;;;;7.50;5.40;;;2.60;99.90;;;;;;6250569;22;20019;-93
2022/11/17 10:18:37;;;;;;;7.90;5.35;;;3.90;99.90;;;;;;6250581;22;20020;-94
2022/11/17 10:25:05;;;;;;;7.88;5.05;;;9.20;99.90;;;;;;6275261;22;20051;-94
2022/11/17 10:27:34;;;;;;;9.27;6.45;;;8.50;99.90;;;;;;6249930;22;20022;-94
2022/11/17 10:30:22;;;;;;;9.40;6.05;;;8.20;99.90;;;;;;6249842;22;20709;-95
2022/11/17 10:33:12;;;;;;;8.75;5.32;;;3.80;99.90;;;;;;6250509;22;20016;-95
2022/11/17 10:35:38;;;;;;;8.15;5.75;;;7.80;99.90;;;;;;6250139;22;20043;-94
2022/11/17 10:38:42;;;;;;;6.90;4.93;;;2.40;99.90;;;;;;6249540;22;20077;-95
2022/11/17 10:41:29;;;;;;;9.65;6.05;;;2.70;99.90;;;;;;6250181;22;20315;-95
2022/11/17 10:44:21;;;;;;;7.93;5.50;;;3.20;99.90;;;;;;6249657;22;20018;-95
2022/11/17 10:47:23;;;;;;;9.55;6.18;;;7.70;99.90;;;;;;6250744;22;20023;-96
2022/11/17 10:50:27;;;;;;;8.70;5.65;;;8.50;99.90;;;;;;6250837;22;20022;-95
2022/11/17 10:53:31;;;;;;;7.68;5.82;;;8.70;99.90;;;;;;6250719;22;20012;-95
2022/11/17 10:59:40;;;;;;;8.95;5.85;;;2.60;99.90;;;;;;6275436;22;20020;-95
2022/11/17 11:02:34;;;;;;;8.65;5.88;;;8.40;99.90;;;;;;6249312;22;20096;-96
2022/11/17 11:05:21;;;;;;;10.02;6.70;;;3.50;99.90;;;;;;6250459;22;20377;-95
2022/11/17 11:08:15;;;;;;;9.13;5.78;;;5.10;99.90;;;;;;6250352;22;20012;-95
2022/11/17 11:10:42;;;;;;;8.77;5.95;;;6.90;99.90;;;;;;6249357;22;20061;-95
2022/11/17 11:13:24;;;;;;;10.85;6.32;;;9.00;99.90;;;;;;6225085;22;20020;-96
2022/11/17 11:15:52;;;;;;;9.10;6.90;;;2.60;99.90;;;;;;6250321;22;20330;-95
2022/11/17 11:21:57;;;;;;;11.10;6.85;;;1.60;99.90;;;;;;6273598;22;20190;-95
2022/11/17 11:24:43;;;;;;;10.35;6.57;;;3.50;99.90;;;;;;6247865;22;20461;-96
2022/11/17 11:35:10;;;;;;;11.50;8.20;;;3.30;99.90;;;;;;6276079;22;20469;-96
2022/11/17 11:37:49;;;;;;;11.40;7.97;;;3.60;99.90;;;;;;6249993;22;20016;-96
2022/11/17 11:47:48;;;;;;;11.93;8.18;;;2.60;99.90;;;;;;6275593;22;20020;-96
2022/11/17 11:53:58;;;;;;;13.80;8.63;;;8.90;99.90;;;;;;6275446;22;20074;-96
2022/11/17 11:56:46;;;;;;;12.88;8.15;;;4.70;99.90;;;;;;6247896;22;20027;-95
2022/11/17 11:59:19;;;;;;;10.73;8.02;;;4.00;99.90;;;;;;6275274;22;20055;-96
2022/11/17 12:12:49;;;;;;;12.32;8.52;;;8.30;99.90;;;;;;6276709;22;20438;-96
2022/11/17 12:18:51;;;;;;;12.98;8.15;;;2.10;99.90;;;;;;6276979;22;20085;-96
2022/11/17 12:21:28;;;;;;;12.18;8.20;;;4.40;99.90;;;;;;6275912;22;20020;-96
2022/11/17 12:24:22;;;;;;;11.52;7.63;;;2.70;99.90;;;;;;6200646;22;20401;-96
2022/11/17 12:27:28;;;;;;;11.00;7.45;;;2.70;99.90;;;;;;6251209;22;20024;-96
2022/11/17 12:29:55;;;;;;;12.27;7.90;;;8.50;99.90;;;;;;6249487;22;20055;-96
2022/11/17 12:36:35;;;;;;;10.93;7.67;;;9.30;99.90;;;;;;6276236;22;20064;-95
2022/11/17 12:39:23;;;;;;;10.32;6.25;;;5.60;99.90;;;;;;6160008;22;20349;-95
2022/11/17 12:49:37;;;;;;;11.83;7.10;;;8.70;99.90;;;;;;6278407;22;20080;-96
2022/11/17 12:56:11;;;;;;;10.27;7.20;;;3.10;99.90;;;;;;6280300;22;20019;-96
2022/11/17 12:58:57;;;;;;;10.20;6.93;;;2.70;99.90;;;;;;6255608;22;20074;-96
2022/11/17 13:02:03;;;;;;;10.10;6.78;;;7.50;99.90;;;;;;6256794;22;20022;-96
2022/11/17 13:05:06;;;;;;;10.00;7.57;;;7.60;99.90;;;;;;6253864;22;20016;-96
2022/11/17 13:07:43;;;;;;;11.88;7.60;;;9.10;99.90;;;;;;6253541;22;20485;-96
2022/11/17 13:10:27;;;;;;;12.13;7.88;;;6.90;99.90;;;;;;6202724;22;20023;-96
2022/11/17 13:13:15;;;;;;;12.13;7.57;;;8.60;99.90;;;;;;6255170;22;20016;-96
2022/11/17 13:16:01;;;;;;;9.45;6.72;;;3.80;99.90;;;;;;6254102;22;20050;-96
2022/11/17 13:18:32;;;;;;;11.70;7.43;;;8.00;99.90;;;;;;6279660;22;20018;-96
2022/11/17 13:21:22;;;;;;;10.05;6.30;;;8.80;99.90;;;;;;6253606;22;20026;-96
2022/11/17 13:23:48;;;;;;;10.18;7.40;;;7.80;99.90;;;;;;6250493;22;20020;-96
2022/11/17 13:26:37;;;;;;;12.88;6.80;;;8.80;99.90;;;;;;6225735;22;20051;-96
2022/11/17 13:29:12;;;;;;;11.68;7.07;;;9.40;99.90;;;;;;6249904;22;20020;-96
2022/11/17 13:32:04;;;;;;;10.63;6.47;;;4.30;99.90;;;;;;6278452;22;20016;-96
2022/11/17 13:34:32;;;;;;;10.82;7.03;;;4.40;99.90;;;;;;6250466;22;20047;-96
2022/11/17 13:36:59;;;;;;;9.75;6.90;;;3.90;99.90;;;;;;6200568;22;20028;-95
2022/11/17 13:42:52;;;;;;;12.32;7.03;;;7.80;99.90;;;;;;6278234;22;20473;-96
2022/11/17 13:46:02;;;;;;;10.02;6.88;;;4.50;99.90;;;;;;6251749;22;20022;-96
2022/11/17 13:48:48;;;;;;;10.35;7.60;;;3.10;99.90;;;;;;6251880;22;20072;-95
2022/11/17 13:51:40;;;;;;;10.10;6.80;;;9.60;99.90;;;;;;6252982;22;20451;-96
2022/11/17 13:57:55;;;;;;;9.25;6.53;;;5.50;99.90;;;;;;6279986;22;20024;-96
2022/11/17 14:04:42;;;;;;;10.02;6.97;;;7.40;99.90;;;;;;6280573;22;20030;-96
2022/11/17 14:07:32;;;;;;;9.85;6.32;;;5.00;99.90;;;;;;6254631;22;20024;-95
2022/11/17 14:10:25;;;;;;;9.82;6.82;;;7.60;99.90;;;;;;6254444;22;20339;-96
2022/11/17 14:13:30;;;;;;;10.07;6.47;;;4.50;99.90;;;;;;6253327;22;20019;-96
2022/11/17 14:16:25;;;;;;;9.93;6.18;;;8.90;99.90;;;;;;6254944;22;20066;-96
2022/11/17 14:19:30;;;;;;;10.98;6.20;;;5.40;99.90;;;;;;6253787;22;20095;-96
2022/11/17 14:22:19;;;;;;;8.25;5.90;;;8.90;99.90;;;;;;6280705;22;20023;-96
2022/11/17 14:25:00;;;;;;;9.88;6.32;;;3.10;99.90;;;;;;6259772;22;20298;-96
2022/11/17 14:31:26;;;;;;;8.60;6.78;;;3.80;99.90;;;;;;6281045;22;20346;-95
2022/11/17 14:33:55;;;;;;;10.73;6.78;;;7.90;99.90;;;;;;6254308;22;20185;-96
2022/11/17 14:36:33;;;;;;;9.60;6.97;;;3.10;99.90;;;;;;6279508;22;20011;-96
2022/11/17 14:46:20;;;;;;;7.85;5.95;;;7.60;99.90;;;;;;6282469;22;20046;-96
2022/11/17 14:48:49;;;;;;;9.10;6.63;;;3.20;99.90;;;;;;6251522;22;20650;-96
2022/11/17 14:51:20;;;;;;;10.30;6.35;;;8.10;99.90;;;;;;6253065;22;20345;-96
2022/11/17 14:54:04;;;;;;;8.90;6.57;;;6.20;99.90;;;;;;6255413;22;20016;-96
2022/11/17 14:56:37;;;;;;;9.32;6.22;;;3.10;99.90;;;;;;6251982;22;20090;-96
2022/11/17 14:59:29;;;;;;;9.20;6.50;;;5.50;99.90;;;;;;6228695;22;20342;-96
2022/11/17 15:02:40;;;;;;;10.68;7.70;;;3.20;99.90;;;;;;6278888;22;20453;-96
2022/11/17 15:05:10;;;;;;;9.98;7.05;;;8.40;99.90;;;;;;6251663;22;20026;-96
2022/11/17 15:07:37;;;;;;;10.57;7.05;;;9.10;99.90;;;;;;6253780;22;20022;-95
2022/11/17 15:10:36;;;;;;;10.07;6.50;;;5.70;99.90;;;;;;6280321;22;20026;-96
2022/11/17 15:13:18;;;;;;;10.00;6.70;;;9.30;99.90;;;;;;6251259;22;20085;-96
2022/11/17 15:16:17;;;;;;;9.43;6.68;;;4.40;99.90;;;;;;6224237;22;20027;-96
2022/11/17 15:18:47;;;;;;;9.02;6.05;;;5.40;99.90;;;;;;6251649;22;20572;-96
2022/11/17 15:28:37;;;;;;;8.70;5.75;;;8.50;99.90;;;;;;6276008;22;20067;-96
2022/11/17 15:34:14;;;;;;;8.85;5.57;;;2.80;99.90;;;;;;6232781;22;20022;-96
2022/11/17 15:40:16;;;;;;;7.88;5.65;;;6.00;99.90;;;;;;6277774;22;20087;-96
2022/11/17 15:42:42;;;;;;;8.10;5.50;;;4.80;99.90;;;;;;6250952;22;20098;-96
2022/11/17 15:45:12;;;;;;;9.55;5.20;;;9.40;99.90;;;;;;6251445;22;20034;-96
2022/11/17 15:48:18;;;;;;;8.23;5.32;;;4.10;99.90;;;;;;6279899;22;20069;-96
2022/11/17 15:51:02;;;;;;;6.82;5.68;;;8.40;99.90;;;;;;6254271;22;20579;-96
2022/11/17 15:53:37;;;;;;;6.68;5.28;;;3.40;99.90;;;;;;6252746;22;20012;-96
2022/11/17 16:00:06;;;;;;;7.57;5.57;;;3.60;99.90;;;;;;6275341;22;20496;-95
2022/11/17 16:02:42;;;;;;;7.78;5.60;;;8.30;99.90;;;;;;6250279;22;20144;-96
2022/11/17 16:05:12;;;;;;;7.43;5.55;;;4.40;99.90;;;;;;6225866;22;20012;-95
2022/11/17 16:11:16;;;;;;;;;;;;;;;;;;;;;
2022/11/17 16:13:47;;;;;;;9.88;7.68;;;5.80;99.90;;;;;;6271603;22;20458;-96
2022/11/17 16:16:18;;;;;;;7.82;6.22;;;7.10;99.90;;;;;;6248759;22;20023;-95
2022/11/17 16:22:50;;;;;;;9.43;6.85;;;9.00;99.90;;;;;;6274403;22;20123;-96
2022/11/17 16:25:50;;;;;;;9.70;6.57;;;8.10;99.90;;;;;;6249515;22;20567;-94
2022/11/17 16:28:35;;;;;;;9.43;7.35;;;4.30;99.90;;;;;;6250962;22;20095;-95
2022/11/17 16:31:24;;;;;;;9.77;7.65;;;3.30;99.90;;;;;;6248852;22;20073;-95
2022/11/17 16:34:28;;;;;;;11.27;7.32;;;7.60;99.90;;;;;;6250717;22;20019;-95
2022/11/17 16:41:17;;;;;;;12.05;8.45;;;7.80;99.90;;;;;;6276815;22;20077;-96
2022/11/17 16:44:06;;;;;;;12.38;8.95;;;8.50;99.90;;;;;;6249722;22;20062;-96
2022/11/17 16:50:11;;;;;;;15.02;9.82;;;8.90;99.90;;;;;;6275050;22;20020;-95
2022/11/17 16:56:20;;;;;;;15.30;9.60;;;5.70;99.90;;;;;;6276897;22;20050;-94
2022/11/17 16:59:09;;;;;;;17.17;10.27;;;8.40;99.90;;;;;;6225081;22;20011;-96
2022/11/17 17:01:41;;;;;;;13.85;9.45;;;6.50;99.90;;;;;;6250941;22;20047;-96
2022/11/17 17:04:12;;;;;;;13.73;10.82;;;3.90;99.90;;;;;;6224488;22;20027;-95
2022/11/17 17:06:42;;;;;;;14.75;11.27;;;3.70;99.90;;;;;;6225693;22;20426;-94
2022/11/17 17:12:35;;;;;;;15.65;10.15;;;8.80;99.90;;;;;;6274597;22;20150;-96
2022/11/17 17:15:21;;;;;;;13.52;9.18;;;8.50;99.90;;;;;;6250033;22;20145;-96
2022/11/17 17:18:29;;;;;;;14.18;9.63;;;9.00;99.90;;;;;;6225742;22;20071;-96
2022/11/17 17:21:15;;;;;;;15.63;9.68;;;9.60;99.90;;;;;;6247957;22;20417;-95
2022/11/17 17:23:44;;;;;;;11.05;7.75;;;8.00;99.90;;;;;;6249685;22;20015;-95
2022/11/17 17:29:34;;;;;;;13.32;8.43;;;9.20;99.90;;;;;;6278118;22;20020;-96
2022/11/17 17:32:06;;;;;;;12.80;8.85;;;9.10;99.90;;;;;;6227805;22;20243;-96
2022/11/17 17:34:56;;;;;;;14.82;11.18;;;3.70;99.90;;;;;;6252115;22;20015;-96
2022/11/17 17:37:21;;;;;;;14.02;10.15;;;8.60;99.90;;;;;;6249448;22;20512;-96
2022/11/17 17:40:24;;;;;;;15.30;10.65;;;6.40;99.90;;;;;;6251253;22;20023;-96
2022/11/17 17:43:10;;;;;;;14.10;9.80;;;4.30;99.90;;;;;;6253496;22;20019;-96
2022/11/17 17:46:16;;;;;;;12.95;9.07;;;8.00;99.90;;;;;;6254469;22;20019;-96
2022/11/17 17:48:45;;;;;;;12.80;9.27;;;5.40;99.90;;;;;;6253248;22;20051;-96
2022/11/17 17:54:54;;;;;;;14.70;10.45;;;4.50;99.90;;;;;;6279863;22;20099;-96
2022/11/17 17:57:39;;;;;;;14.00;9.60;;;8.80;99.90;;;;;;6253138;22;20062;-95
2022/11/17 18:00:49;;;;;;;13.68;10.35;;;9.40;99.90;;;;;;6252763;22;20051;-95
2022/11/17 18:03:17;;;;;;;;;;;4.50;99.90;;;;;;6252935;22;20020;-96
2022/11/17 18:05:54;;;;;;;13.95;10.45;;;9.40;99.90;;;;;;6251406;22;19918;-95
2022/11/17 18:08:44;;;;;;;15.93;10.88;;;8.70;99.90;;;;;;6229237;22;20069;-96
2022/11/17 18:11:48;;;;;;;16.45;11.27;;;2.60;99.90;;;;;;6251850;22;20023;-96
2022/11/17 18:14:23;;;;;;;16.98;10.88;;;5.90;99.90;;;;;;6221513;23;20060;-93
2022/11/17 18:17:32;;;;;;;14.90;11.20;;;3.90;99.90;;;;;;6197333;23;20023;-96
2022/11/17 18:20:02;;;;;;;15.05;10.38;;;8.60;99.90;;;;;;6224238;23;20015;-96
2022/11/17 18:26:39;;;;;;;17.58;12.40;;;3.40;99.90;;;;;;6249319;23;20019;-96
2022/11/17 18:29:39;;;;;;;15.07;11.07;;;6.60;99.90;;;;;;6222815;23;20091;-96
2022/11/17 18:32:23;;;;;;;20.20;14.32;;;5.00;99.90;;;;;;6215948;23;20023;-96
2022/11/17 18:35:20;;;;;;;;;;;;;;;;;;;;;
2022/11/17 18:41:49;;;;;;;22.92;15.18;;;7.90;99.90;;;;;;6255132;23;20068;-96
2022/11/17 18:44:20;;;;;;;18.98;12.63;;;4.40;99.90;;;;;;6201571;23;20024;-96
2022/11/17 18:47:18;;;;;;;15.73;11.45;;;3.70;99.90;;;;;;6200911;23;20019;-96
2022/11/17 18:50:07;;;;;;;19.60;12.82;;;6.90;99.90;;;;;;6201377;23;20024;-96
2022/11/17 18:53:01;;;;;;;15.75;11.25;;;8.60;99.90;;;;;;6226724;23;20019;-96
2022/11/17 19:03:10;;;;;;;18.45;12.80;;;8.40;99.90;;;;;;6110767;23;20026;-96
2022/11/17 19:05:55;;;;;;;18.55;12.93;;;9.50;99.90;;;;;;6102917;23;20018;-96
2022/11/17 19:08:22;;;;;;;16.27;11.75;;;9.20;99.90;;;;;;6102888;23;20017;-96
2022/11/17 19:10:56;;;;;;;19.15;13.88;;;8.90;99.90;;;;;;6103603;23;20029;-96
2022/11/17 19:13:32;;;;;;;17.88;12.25;;;3.20;99.90;;;;;;6206181;22;20019;-95
2022/11/17 19:16:38;;;;;;;15.80;12.05;;;9.00;99.90;;;;;;6256501;22;20058;-96
2022/11/17 19:19:07;;;;;;;19.45;14.95;;;3.50;99.90;;;;;;6253680;22;20023;-95
2022/11/17 19:21:35;;;;;;;16.52;12.35;;;3.70;99.90;;;;;;6252853;22;20015;-96
2022/11/17 19:27:42;;;;;;;16.13;11.43;;;8.40;99.90;;;;;;6188427;23;20056;-95
2022/11/17 19:38:18;;;;;;;;;;;;;;;;;;;;;
2022/11/17 19:49:49;;;;;;;;;;;;;;;;;;;;;
2022/11/17 21:15:28;;;;;;;18.65;12.52;;;7.10;99.90;;;;;;6323305;22;20031;-96
2022/11/17 21:18:27;;;;;;;17.35;12.98;;;3.20;99.90;;;;;;6088827;23;3408778;-96
2022/11/17 21:24:37;;;;;;;19.40;12.18;;;5.50;99.90;;;;;;6250047;23;20015;-96
2022/11/17 21:27:18;;;;;;;17.15;12.13;;;8.80;99.90;;;;;;6202197;23;20020;-94
2022/11/17 21:40:44;;;;;;;19.05;11.98;;;9.60;99.90;;;;;;6250055;23;20020;-96
2022/11/17 21:43:11;;;;;;;19.20;14.43;;;4.20;99.90;;;;;;6225822;23;20031;-96
2022/11/17 21:49:06;;;;;;;19.88;12.00;;;5.90;99.90;;;;;;6250010;23;20048;-96
2022/11/17 21:51:53;;;;;;;17.42;11.93;;;3.60;99.90;;;;;;6196982;23;20027;-95
2022/11/17 21:54:22;;;;;;;15.18;11.77;;;3.30;99.90;;;;;;6195899;23;20237;-96
2022/11/17 21:56:49;;;;;;;16.15;11.68;;;2.90;99.90;;;;;;6199452;23;20016;-96
2022/11/17 21:59:29;;;;;;;15.38;10.45;;;3.60;99.90;;;;;;6196812;23;20019;-96
2022/11/17 22:06:17;;;;;;;14.15;10.93;;;8.40;99.90;;;;;;6217919;23;20034;-96
2022/11/17 22:09:11;;;;;;;18.02;11.02;;;7.50;99.90;;;;;;6190037;23;20073;-96
2022/11/17 22:11:38;;;;;;;14.98;10.88;;;8.40;99.90;;;;;;6191923;23;20059;-96
2022/11/17 22:14:41;;;;;;;14.55;10.50;;;4.10;99.90;;;;;;6192520;23;20049;-96
2022/11/17 22:17:07;;;;;;;14.80;10.80;;;3.70;99.90;;;;;;6183705;23;20032;-96
2022/11/17 22:19:35;;;;;;;15.40;10.07;;;4.40;99.90;;;;;;6173405;23;20044;-96
2022/11/17 22:29:47;;;;;;;15.27;10.50;;;3.80;99.90;;;;;;6185305;23;20163;-96
2022/11/17 22:32:54;;;;;;;15.50;10.98;;;4.30;99.90;;;;;;6135895;23;20023;-96
2022/11/17 22:35:52;;;;;;;;;;;;;;;;;;;;;
2022/11/17 22:39:07;;;;;;;16.00;10.52;;;4.20;99.90;;;;;;6160406;23;20017;-96
2022/11/17 22:41:42;;;;;;;18.33;11.02;;;7.40;99.90;;;;;;6134382;23;20419;-96
2022/11/17 22:44:41;;;;;;;18.00;11.48;;;7.10;99.90;;;;;;6133999;23;20124;-96
2022/11/17 22:47:33;;;;;;;15.68;10.93;;;5.80;99.90;;;;;;6137584;23;20027;-96
2022/11/17 22:50:01;;;;;;;16.13;10.95;;;7.60;99.90;;;;;;6133361;23;20022;-95
2022/11/17 22:52:45;;;;;;;19.85;11.43;;;7.60;99.90;;;;;;6108435;23;20495;-96
2022/11/17 22:55:50;;;;;;;15.45;10.77;;;5.60;99.90;;;;;;6135570;23;20020;-96
2022/11/17 22:58:34;;;;;;;17.23;11.60;;;5.00;99.90;;;;;;6135509;23;20017;-96
2022/11/17 23:01:49;;;;;;;18.10;12.10;;;5.00;99.90;;;;;;6111189;23;20013;-96